createdAt,value
2018-06-30T00:00:56.335Z,16.30
2018-06-30T00:03:29.079Z,16.83
2018-06-30T00:05:57.662Z,17.47
2018-06-30T00:08:26.268Z,17.70
2018-06-30T00:10:54.980Z,16.70
2018-06-30T00:13:23.775Z,20.80
2018-06-30T00:15:52.355Z,17.97
2018-06-30T00:18:20.899Z,17.17
2018-06-30T00:20:49.534Z,16.47
2018-06-30T00:23:18.055Z,17.00
2018-06-30T00:25:46.748Z,17.80
2018-06-30T00:28:15.803Z,15.93
2018-06-30T00:30:44.397Z,19.23
2018-06-30T00:33:13.014Z,15.57
2018-06-30T00:35:41.546Z,16.13
2018-06-30T00:38:10.481Z,15.47
2018-06-30T00:40:39.023Z,16.40
2018-06-30T00:43:07.750Z,15.90
2018-06-30T00:45:36.510Z,15.93
2018-06-30T00:48:05.595Z,15.97
2018-06-30T00:50:34.114Z,18.27
2018-06-30T00:53:03.143Z,15.23
2018-06-30T00:55:32.206Z,14.53
2018-06-30T00:58:01.119Z,16.10
2018-06-30T01:00:29.726Z,19.37
2018-06-30T01:02:58.307Z,14.87
2018-06-30T01:05:27.107Z,14.20
2018-06-30T01:07:55.942Z,14.03
2018-06-30T01:10:24.546Z,13.80
2018-06-30T01:12:53.360Z,13.47
2018-06-30T01:15:22.222Z,17.30
2018-06-30T01:17:51.044Z,15.33
2018-06-30T01:20:19.595Z,16.83
2018-06-30T01:22:48.124Z,16.03
2018-06-30T01:25:16.674Z,16.77
2018-06-30T01:27:45.439Z,15.20
2018-06-30T01:30:14.047Z,17.07
2018-06-30T01:32:43.098Z,13.80
2018-06-30T01:35:11.902Z,20.93
2018-06-30T01:37:41.147Z,13.90
2018-06-30T01:40:09.765Z,15.00
2018-06-30T01:42:38.309Z,15.03
2018-06-30T01:45:07.439Z,16.10
2018-06-30T01:47:36.237Z,14.37
2018-06-30T01:50:05.235Z,16.07
2018-06-30T01:52:33.838Z,16.57
2018-06-30T01:55:02.375Z,15.37
2018-06-30T01:57:30.942Z,15.50
2018-06-30T01:59:59.562Z,16.03
2018-06-30T02:02:28.126Z,18.03
2018-06-30T02:04:56.710Z,15.03
2018-06-30T02:07:25.457Z,14.87
2018-06-30T02:09:53.971Z,16.00
2018-06-30T02:12:22.573Z,16.20
2018-06-30T02:14:51.202Z,15.60
2018-06-30T02:17:19.817Z,16.00
2018-06-30T02:19:48.468Z,15.93
2018-06-30T02:22:17.082Z,15.57
2018-06-30T02:24:45.962Z,16.13
2018-06-30T02:27:14.600Z,15.33
2018-06-30T02:29:43.155Z,16.83
2018-06-30T02:32:11.685Z,16.73
2018-06-30T02:34:40.299Z,18.80
2018-06-30T02:37:08.870Z,21.30
2018-06-30T02:39:37.447Z,17.97
2018-06-30T02:42:06.014Z,20.27
2018-06-30T02:44:34.626Z,18.10
2018-06-30T02:47:03.202Z,16.30
2018-06-30T02:49:31.550Z,18.60
2018-06-30T02:52:00.130Z,17.37
2018-06-30T02:54:29.120Z,24.03
2018-06-30T02:56:57.671Z,17.90
2018-06-30T02:59:26.291Z,18.73
2018-06-30T03:01:55.087Z,19.93
2018-06-30T03:04:23.902Z,20.73
2018-06-30T03:06:52.478Z,19.90
2018-06-30T03:09:21.150Z,21.97
2018-06-30T03:11:49.705Z,21.23
2018-06-30T03:14:18.230Z,19.87
2018-06-30T03:16:46.811Z,18.13
2018-06-30T03:19:15.327Z,19.53
2018-06-30T03:21:43.863Z,24.77
2018-06-30T03:24:12.462Z,20.37
2018-06-30T03:26:40.980Z,21.37
2018-06-30T03:29:09.546Z,20.27
2018-06-30T03:31:38.083Z,20.47
2018-06-30T03:34:06.675Z,19.50
2018-06-30T03:36:35.198Z,21.20
2018-06-30T03:39:04.698Z,25.70
2018-06-30T03:41:33.223Z,21.17
2018-06-30T03:44:01.766Z,22.27
2018-06-30T03:46:30.300Z,19.67
2018-06-30T03:48:58.918Z,18.50
2018-06-30T03:51:27.657Z,18.33
2018-06-30T03:53:56.786Z,18.27
2018-06-30T03:56:25.684Z,18.07
2018-06-30T03:58:54.527Z,18.10
2018-06-30T04:01:23.215Z,18.83
2018-06-30T04:03:51.923Z,24.10
2018-06-30T04:06:20.723Z,23.17
2018-06-30T04:08:49.302Z,20.00
2018-06-30T04:11:17.850Z,20.40
2018-06-30T04:13:46.462Z,21.50
2018-06-30T04:16:15.016Z,22.87
2018-06-30T04:18:43.567Z,24.40
2018-06-30T04:21:12.155Z,21.53
2018-06-30T04:23:40.798Z,29.47
2018-06-30T04:26:09.371Z,27.03
2018-06-30T04:28:37.663Z,26.73
2018-06-30T04:31:06.458Z,22.23
2018-06-30T04:33:36.454Z,24.50
2018-06-30T04:36:05.127Z,23.97
2018-06-30T04:38:33.805Z,22.70
2018-06-30T04:41:02.620Z,25.37
2018-06-30T04:43:31.206Z,29.30
2018-06-30T04:45:59.766Z,27.47
2018-06-30T04:48:28.323Z,23.60
2018-06-30T04:50:56.986Z,25.30
2018-06-30T04:53:25.482Z,23.60
2018-06-30T04:55:54.030Z,22.53
2018-06-30T04:58:22.762Z,22.43
2018-06-30T05:00:51.315Z,25.93
2018-06-30T05:03:19.946Z,24.00
2018-06-30T05:05:48.479Z,24.50
2018-06-30T05:08:17.074Z,24.90
2018-06-30T05:10:45.625Z,26.07
2018-06-30T05:13:14.207Z,31.73
2018-06-30T05:15:42.750Z,29.47
2018-06-30T05:18:11.330Z,37.73
2018-06-30T05:20:39.915Z,27.40
2018-06-30T05:23:08.490Z,27.30
2018-06-30T05:25:37.167Z,28.60
2018-06-30T05:28:05.771Z,27.13
2018-06-30T05:30:34.311Z,25.40
2018-06-30T05:33:03.038Z,25.00
2018-06-30T05:35:31.698Z,24.83
2018-06-30T05:38:00.279Z,24.87
2018-06-30T05:40:28.896Z,26.70
2018-06-30T05:42:57.655Z,24.97
2018-06-30T05:45:26.302Z,25.47
2018-06-30T05:47:54.943Z,25.43
2018-06-30T05:50:23.807Z,23.60
2018-06-30T05:52:52.794Z,24.00
2018-06-30T05:55:21.434Z,24.87
2018-06-30T05:57:50.109Z,24.13
2018-06-30T06:00:18.754Z,25.00
2018-06-30T06:02:47.395Z,23.13
2018-06-30T06:05:16.088Z,24.77
2018-06-30T06:07:44.682Z,27.17
2018-06-30T06:10:13.390Z,28.53
2018-06-30T06:12:42.086Z,23.23
2018-06-30T06:15:10.588Z,24.60
2018-06-30T06:17:39.477Z,27.23
2018-06-30T06:20:08.390Z,25.27
2018-06-30T06:22:36.918Z,27.67
2018-06-30T06:25:05.742Z,23.50
2018-06-30T06:27:34.631Z,23.50
2018-06-30T06:30:03.258Z,23.63
2018-06-30T06:32:31.921Z,24.33
2018-06-30T06:35:00.434Z,25.20
2018-06-30T06:37:29.067Z,30.00
2018-06-30T06:39:57.614Z,27.50
2018-06-30T06:42:26.191Z,23.57
2018-06-30T06:44:54.916Z,24.23
2018-06-30T06:47:23.579Z,25.17
2018-06-30T06:49:52.235Z,23.33
2018-06-30T06:52:20.771Z,23.23
2018-06-30T06:54:49.708Z,25.07
2018-06-30T06:57:18.370Z,23.13
2018-06-30T06:59:47.135Z,23.93
2018-06-30T07:02:16.007Z,21.63
2018-06-30T07:04:44.549Z,23.00
2018-06-30T07:07:13.122Z,23.50
2018-06-30T07:09:41.715Z,27.17
2018-06-30T07:12:10.354Z,21.03
2018-06-30T07:14:39.092Z,23.47
2018-06-30T07:17:07.693Z,22.80
2018-06-30T07:19:36.489Z,23.00
2018-06-30T07:22:05.173Z,23.43
2018-06-30T07:24:33.946Z,22.60
2018-06-30T07:27:02.700Z,19.67
2018-06-30T07:29:31.254Z,18.73
2018-06-30T07:31:59.780Z,19.57
2018-06-30T07:34:28.359Z,22.17
2018-06-30T07:36:57.074Z,19.87
2018-06-30T07:39:25.635Z,19.50
2018-06-30T07:41:54.179Z,20.60
2018-06-30T07:44:22.804Z,21.07
2018-06-30T07:46:51.350Z,20.10
2018-06-30T07:49:20.027Z,20.77
2018-06-30T07:51:48.585Z,18.50
2018-06-30T07:54:17.165Z,19.83
2018-06-30T07:56:45.744Z,20.37
2018-06-30T07:59:14.650Z,17.30
2018-06-30T08:01:43.354Z,19.90
2018-06-30T08:04:12.240Z,17.93
2018-06-30T08:06:40.814Z,20.17
2018-06-30T08:09:10.574Z,18.77
2018-06-30T08:11:39.979Z,17.50
2018-06-30T08:14:08.847Z,16.73
2018-06-30T08:16:37.887Z,16.57
2018-06-30T08:19:06.837Z,15.70
2018-06-30T08:21:35.603Z,15.20
2018-06-30T08:24:04.309Z,14.00
2018-06-30T08:26:32.870Z,14.40
2018-06-30T08:29:01.583Z,14.73
2018-06-30T08:31:30.295Z,16.83
2018-06-30T08:33:58.937Z,15.97
2018-06-30T08:36:27.500Z,15.60
2018-06-30T08:38:56.022Z,15.60
2018-06-30T08:41:24.663Z,15.17
2018-06-30T08:43:53.370Z,16.07
2018-06-30T08:46:22.334Z,16.20
2018-06-30T08:48:50.975Z,17.03
2018-06-30T08:51:19.546Z,15.87
2018-06-30T08:53:48.130Z,15.47
2018-06-30T08:56:16.659Z,14.27
2018-06-30T08:58:45.262Z,14.63
2018-06-30T09:01:13.843Z,14.40
2018-06-30T09:03:42.460Z,12.87
2018-06-30T09:06:11.008Z,12.47
2018-06-30T09:08:39.771Z,12.43
2018-06-30T09:11:08.547Z,13.20
2018-06-30T09:13:37.211Z,11.70
2018-06-30T09:16:06.183Z,11.30
2018-06-30T09:18:34.799Z,16.13
2018-06-30T09:21:03.568Z,11.40
2018-06-30T09:23:32.221Z,9.80
2018-06-30T09:26:00.859Z,10.23
2018-06-30T09:28:29.639Z,8.37
2018-06-30T09:30:58.480Z,13.93
2018-06-30T09:33:27.258Z,9.37
2018-06-30T09:35:55.922Z,8.70
2018-06-30T09:38:24.482Z,8.60
2018-06-30T09:40:53.048Z,8.17
2018-06-30T09:43:21.692Z,8.40
2018-06-30T09:45:50.330Z,8.40
2018-06-30T09:48:19.062Z,8.30
2018-06-30T09:50:47.618Z,7.77
2018-06-30T09:53:16.261Z,9.03
2018-06-30T09:55:44.926Z,9.40
2018-06-30T09:58:13.694Z,6.90
2018-06-30T10:00:47.543Z,7.47
2018-06-30T10:03:16.174Z,8.00
2018-06-30T10:05:44.765Z,6.77
2018-06-30T10:08:13.459Z,7.50
2018-06-30T10:10:42.003Z,7.10
2018-06-30T10:13:10.618Z,6.40
2018-06-30T10:15:39.278Z,6.47
2018-06-30T10:18:08.087Z,6.20
2018-06-30T10:20:36.619Z,6.10
2018-06-30T10:23:05.212Z,5.90
2018-06-30T10:25:34.047Z,6.40
2018-06-30T10:28:02.616Z,7.83
2018-06-30T10:30:31.128Z,6.13
2018-06-30T10:32:59.701Z,4.77
2018-06-30T10:35:28.354Z,5.40
2018-06-30T10:37:57.119Z,5.67
2018-06-30T10:40:25.699Z,6.07
2018-06-30T10:42:54.458Z,5.60
2018-06-30T10:45:22.979Z,6.57
2018-06-30T10:47:51.565Z,12.87
2018-06-30T10:50:20.088Z,5.40
2018-06-30T10:52:48.747Z,6.30
2018-06-30T10:55:17.627Z,5.17
2018-06-30T10:57:46.271Z,4.53
2018-06-30T11:00:15.061Z,4.57
2018-06-30T11:02:43.616Z,4.53
2018-06-30T11:05:12.748Z,5.17
2018-06-30T11:07:41.405Z,4.13
2018-06-30T11:10:10.491Z,3.80
2018-06-30T11:12:39.409Z,4.30
2018-06-30T11:15:08.102Z,4.17
2018-06-30T11:17:37.054Z,4.70
2018-06-30T11:20:06.174Z,5.70
2018-06-30T11:22:34.972Z,3.63
2018-06-30T11:25:03.847Z,5.23
2018-06-30T11:27:32.584Z,3.37
2018-06-30T11:30:01.283Z,3.13
2018-06-30T11:32:29.907Z,3.73
2018-06-30T11:34:58.491Z,3.60
2018-06-30T11:37:27.189Z,3.20
2018-06-30T11:39:55.774Z,4.07
2018-06-30T11:42:24.354Z,3.80
2018-06-30T11:44:52.937Z,4.40
2018-06-30T11:47:21.502Z,4.63
2018-06-30T11:49:50.298Z,4.20
2018-06-30T11:52:18.849Z,3.70
2018-06-30T11:54:47.848Z,6.53
2018-06-30T11:57:16.431Z,4.60
2018-06-30T11:59:45.250Z,4.80
2018-06-30T12:02:13.856Z,4.17
2018-06-30T12:04:42.383Z,4.30
2018-06-30T12:07:10.930Z,3.90
2018-06-30T12:09:39.470Z,4.43
2018-06-30T12:12:08.385Z,7.13
2018-06-30T12:14:36.909Z,3.80
2018-06-30T12:17:05.499Z,4.17
2018-06-30T12:19:34.479Z,4.63
2018-06-30T12:22:03.118Z,3.40
2018-06-30T12:24:31.694Z,3.77
2018-06-30T12:27:00.296Z,4.40
2018-06-30T12:29:29.227Z,4.33
2018-06-30T12:31:57.871Z,4.00
2018-06-30T12:34:26.674Z,3.90
2018-06-30T12:36:55.587Z,3.63
2018-06-30T12:39:24.114Z,4.40
2018-06-30T12:41:53.216Z,4.37
2018-06-30T12:44:21.927Z,4.13
2018-06-30T12:46:50.663Z,4.20
2018-06-30T12:49:19.186Z,4.30
2018-06-30T12:51:47.838Z,4.17
2018-06-30T12:54:16.408Z,4.03
2018-06-30T12:56:44.957Z,4.33
2018-06-30T12:59:13.498Z,10.17
2018-06-30T13:01:42.027Z,4.63
2018-06-30T13:04:10.579Z,4.37
2018-06-30T13:06:38.879Z,3.93
2018-06-30T13:09:11.211Z,3.93
2018-06-30T13:11:39.964Z,3.90
2018-06-30T13:14:08.490Z,4.57
2018-06-30T13:16:38.019Z,4.23
2018-06-30T13:19:07.448Z,4.20
2018-06-30T13:21:36.207Z,4.23
2018-06-30T13:24:05.515Z,4.03
2018-06-30T13:26:34.379Z,4.07
2018-06-30T13:29:03.193Z,4.47
2018-06-30T13:31:31.786Z,5.00
2018-06-30T13:34:00.570Z,4.40
2018-06-30T13:36:29.331Z,4.67
2018-06-30T13:38:58.016Z,5.23
2018-06-30T13:41:26.679Z,4.80
2018-06-30T13:43:55.275Z,4.70
2018-06-30T13:46:24.176Z,4.70
2018-06-30T13:48:52.796Z,4.70
2018-06-30T13:51:21.513Z,3.73
2018-06-30T13:53:50.187Z,4.10
2018-06-30T13:56:18.733Z,4.13
2018-06-30T13:58:47.273Z,4.00
2018-06-30T14:01:15.834Z,4.70
2018-06-30T14:03:44.375Z,4.63
2018-06-30T14:06:12.983Z,5.07
2018-06-30T14:08:41.555Z,6.43
2018-06-30T14:11:10.191Z,7.10
2018-06-30T14:13:38.757Z,4.00
2018-06-30T14:16:07.562Z,4.40
2018-06-30T14:18:36.193Z,5.60
2018-06-30T14:21:04.908Z,4.83
2018-06-30T14:23:33.641Z,4.00
2018-06-30T14:26:02.171Z,4.60
2018-06-30T14:28:30.885Z,5.03
2018-06-30T14:30:59.531Z,5.00
2018-06-30T14:33:28.163Z,4.83
2018-06-30T14:35:56.751Z,5.40
2018-06-30T14:38:25.391Z,4.73
2018-06-30T14:40:54.009Z,5.00
2018-06-30T14:43:22.574Z,4.50
2018-06-30T14:45:51.315Z,9.50
2018-06-30T14:48:20.314Z,4.43
2018-06-30T14:50:49.135Z,8.10
2018-06-30T14:53:17.687Z,4.63
2018-06-30T14:55:46.210Z,4.50
2018-06-30T14:58:14.763Z,4.97
2018-06-30T15:00:43.392Z,4.80
2018-06-30T15:03:11.955Z,4.60
2018-06-30T15:05:40.651Z,6.93
2018-06-30T15:08:09.259Z,4.93
2018-06-30T15:10:37.894Z,6.90
2018-06-30T15:13:06.082Z,4.67
2018-06-30T15:15:34.760Z,4.37
2018-06-30T15:18:03.354Z,4.80
2018-06-30T15:20:31.970Z,5.70
2018-06-30T15:23:00.524Z,4.60
2018-06-30T15:25:29.044Z,5.77
2018-06-30T15:27:57.685Z,4.40
2018-06-30T15:30:26.264Z,11.90
2018-06-30T15:32:54.976Z,6.13
2018-06-30T15:35:23.595Z,9.23
2018-06-30T15:37:52.375Z,8.93
2018-06-30T15:40:20.892Z,5.10
2018-06-30T15:42:49.494Z,5.23
2018-06-30T15:45:18.271Z,4.83
2018-06-30T15:47:46.955Z,7.23
2018-06-30T15:50:15.502Z,4.57
2018-06-30T15:52:44.191Z,8.03
2018-06-30T15:55:13.151Z,5.23
2018-06-30T15:57:42.096Z,4.43
2018-06-30T16:00:10.757Z,5.60
2018-06-30T16:02:39.459Z,7.43
2018-06-30T16:05:08.064Z,5.10
2018-06-30T16:07:36.769Z,7.63
2018-06-30T16:10:05.609Z,5.33
2018-06-30T16:12:34.420Z,4.60
2018-06-30T16:15:02.983Z,5.50
2018-06-30T16:17:31.619Z,5.87
2018-06-30T16:20:00.147Z,4.77
2018-06-30T16:22:28.904Z,8.70
2018-06-30T16:24:57.631Z,6.47
2018-06-30T16:27:26.362Z,6.07
2018-06-30T16:29:54.994Z,5.60
2018-06-30T16:32:23.803Z,5.10
2018-06-30T16:34:53.475Z,5.80
2018-06-30T16:37:22.176Z,9.30
2018-06-30T16:39:50.782Z,4.90
2018-06-30T16:42:19.489Z,5.83
2018-06-30T16:44:48.302Z,5.57
2018-06-30T16:47:17.128Z,9.13
2018-06-30T16:49:45.672Z,5.83
2018-06-30T16:52:14.330Z,6.37
2018-06-30T16:54:42.934Z,5.67
2018-06-30T16:57:11.715Z,7.33
2018-06-30T16:59:40.246Z,5.13
2018-06-30T17:02:08.874Z,5.50
2018-06-30T17:04:37.545Z,5.17
2018-06-30T17:07:06.185Z,5.40
2018-06-30T17:09:34.980Z,5.87
2018-06-30T17:12:03.632Z,6.10
2018-06-30T17:14:32.332Z,5.73
2018-06-30T17:17:00.938Z,6.00
2018-06-30T17:19:29.642Z,5.50
2018-06-30T17:21:58.359Z,5.00
2018-06-30T17:24:26.714Z,7.83
2018-06-30T17:26:55.318Z,5.60
2018-06-30T17:29:24.007Z,6.17
2018-06-30T17:31:53.131Z,4.97
2018-06-30T17:34:21.786Z,4.77
2018-06-30T17:36:50.560Z,5.70
2018-06-30T17:39:19.150Z,4.70
2018-06-30T17:41:48.106Z,6.63
2018-06-30T17:44:16.912Z,5.30
2018-06-30T17:46:45.539Z,4.83
2018-06-30T17:49:14.151Z,5.23
2018-06-30T17:51:42.747Z,6.40
2018-06-30T17:54:11.382Z,5.47
2018-06-30T17:56:40.381Z,8.83
2018-06-30T17:59:09.087Z,5.30
2018-06-30T18:01:37.815Z,6.17
2018-06-30T18:04:06.536Z,4.93
2018-06-30T18:06:35.143Z,5.33
2018-06-30T18:09:04.224Z,16.03
2018-06-30T18:11:32.907Z,4.97
2018-06-30T18:14:01.487Z,5.27
2018-06-30T18:16:30.155Z,6.33
2018-06-30T18:18:58.414Z,5.60
2018-06-30T18:21:27.135Z,6.10
2018-06-30T18:23:55.984Z,5.13
2018-06-30T18:26:24.623Z,4.93
2018-06-30T18:28:53.346Z,5.40
2018-06-30T18:31:21.931Z,5.03
2018-06-30T18:33:50.592Z,4.87
2018-06-30T18:36:19.150Z,5.17
2018-06-30T18:38:48.074Z,5.00
2018-06-30T18:41:16.675Z,5.33
2018-06-30T18:43:45.242Z,5.97
2018-06-30T18:46:13.980Z,6.73
2018-06-30T18:48:42.567Z,5.57
2018-06-30T18:51:11.260Z,6.97
2018-06-30T18:53:40.031Z,6.47
2018-06-30T18:56:09.043Z,5.37
2018-06-30T18:58:37.799Z,7.40
2018-06-30T19:01:06.404Z,8.40
2018-06-30T19:03:34.966Z,5.70
2018-06-30T19:06:03.676Z,5.30
2018-06-30T19:08:32.311Z,9.60
2018-06-30T19:11:00.892Z,5.67
2018-06-30T19:13:29.794Z,5.70
2018-06-30T19:15:58.964Z,5.60
2018-06-30T19:18:27.906Z,4.87
2018-06-30T19:20:56.447Z,4.70
2018-06-30T19:23:25.289Z,5.07
2018-06-30T19:25:53.983Z,5.13
2018-06-30T19:28:22.741Z,6.07
2018-06-30T19:30:51.626Z,4.80
2018-06-30T19:33:20.351Z,4.40
2018-06-30T19:35:48.976Z,5.60
2018-06-30T19:38:17.830Z,4.00
2018-06-30T19:40:46.885Z,4.43
2018-06-30T19:43:15.420Z,10.03
2018-06-30T19:45:44.019Z,6.30
2018-06-30T19:48:12.635Z,4.70
2018-06-30T19:50:41.359Z,4.60
2018-06-30T19:53:09.921Z,3.20
2018-06-30T19:55:38.779Z,3.73
2018-06-30T19:58:07.410Z,2.60
2018-06-30T20:00:36.042Z,5.63
2018-06-30T20:03:04.614Z,2.93
2018-06-30T20:05:33.372Z,3.33
2018-06-30T20:08:01.947Z,3.77
2018-06-30T20:10:30.622Z,2.80
2018-06-30T20:12:59.183Z,2.63
2018-06-30T20:15:27.767Z,2.10
2018-06-30T20:17:56.396Z,4.70
2018-06-30T20:20:24.947Z,1.80
2018-06-30T20:22:53.728Z,3.60
2018-06-30T20:25:23.347Z,2.80
2018-06-30T20:27:52.306Z,2.33
2018-06-30T20:30:21.168Z,3.53
2018-06-30T20:32:49.753Z,3.53
2018-06-30T20:35:18.282Z,2.00
2018-06-30T20:37:47.004Z,4.83
2018-06-30T20:40:16.075Z,1.60
2018-06-30T20:42:44.644Z,1.67
2018-06-30T20:45:13.489Z,1.77
2018-06-30T20:47:42.112Z,2.03
2018-06-30T20:50:10.772Z,1.70
2018-06-30T20:52:39.376Z,1.57
2018-06-30T20:55:08.199Z,1.57
2018-06-30T20:57:36.750Z,1.47
2018-06-30T21:00:05.745Z,2.00
2018-06-30T21:02:34.514Z,4.43
2018-06-30T21:05:03.335Z,1.83
2018-06-30T21:07:31.990Z,2.20
2018-06-30T21:10:00.624Z,2.00
2018-06-30T21:12:29.502Z,2.13
2018-06-30T21:14:58.143Z,2.47
2018-06-30T21:17:26.707Z,4.00
2018-06-30T21:19:55.328Z,1.90
2018-06-30T21:22:23.842Z,2.90
2018-06-30T21:24:52.383Z,3.60
2018-06-30T21:27:21.103Z,1.47
2018-06-30T21:29:49.718Z,1.93
2018-06-30T21:32:18.364Z,4.20
2018-06-30T21:34:46.990Z,3.30
2018-06-30T21:37:15.631Z,3.23
2018-06-30T21:39:44.469Z,1.40
2018-06-30T21:42:13.094Z,1.67
2018-06-30T21:44:41.626Z,4.53
2018-06-30T21:47:10.227Z,1.70
2018-06-30T21:49:38.931Z,2.00
2018-06-30T21:52:07.547Z,1.87
2018-06-30T21:54:36.162Z,1.40
2018-06-30T21:57:05.048Z,1.50
2018-06-30T21:59:33.682Z,2.47
2018-06-30T22:02:02.427Z,1.47
2018-06-30T22:04:31.158Z,1.60
2018-06-30T22:07:00.040Z,1.50
2018-06-30T22:09:28.707Z,7.13
2018-06-30T22:11:57.251Z,2.60
2018-06-30T22:14:25.862Z,1.70
2018-06-30T22:16:54.455Z,1.60
2018-06-30T22:19:23.050Z,2.70
2018-06-30T22:21:51.894Z,5.33
2018-06-30T22:24:20.506Z,1.83
2018-06-30T22:26:49.071Z,2.10
2018-06-30T22:29:17.642Z,1.47
2018-06-30T22:31:46.323Z,1.13
2018-06-30T22:34:14.918Z,5.30
2018-06-30T22:36:43.734Z,1.93
2018-06-30T22:39:12.922Z,1.23
2018-06-30T22:41:41.511Z,1.70
2018-06-30T22:44:10.337Z,1.60
2018-06-30T22:46:38.871Z,3.47
2018-06-30T22:49:07.604Z,1.67
2018-06-30T22:51:36.163Z,1.50
2018-06-30T22:54:04.939Z,1.40
2018-06-30T22:56:33.578Z,4.10
2018-06-30T22:59:02.683Z,1.93
2018-06-30T23:01:31.488Z,1.60
2018-06-30T23:04:00.046Z,1.30
2018-06-30T23:06:28.611Z,2.90
2018-06-30T23:08:57.123Z,2.90
2018-06-30T23:11:25.751Z,1.57
2018-06-30T23:13:54.539Z,2.90
2018-06-30T23:16:23.127Z,1.30
2018-06-30T23:18:51.687Z,1.30
2018-06-30T23:21:20.234Z,1.37
2018-06-30T23:23:48.879Z,1.67
2018-06-30T23:26:17.511Z,1.60
2018-06-30T23:28:46.242Z,4.40
2018-06-30T23:31:14.810Z,1.40
2018-06-30T23:33:43.450Z,2.80
2018-06-30T23:36:12.170Z,1.60
2018-06-30T23:38:40.956Z,1.10
2018-06-30T23:41:09.595Z,1.67
2018-06-30T23:43:38.170Z,1.97
2018-06-30T23:46:06.718Z,2.80
2018-06-30T23:48:35.265Z,1.70
2018-06-30T23:51:03.962Z,1.73
2018-06-30T23:53:32.599Z,7.77
2018-06-30T23:56:01.159Z,2.90
2018-06-30T23:58:29.726Z,1.40
